Aérodrome :
LOGIN :

S'inscrire | Disclaimer

   EN    FR    IT 

 










Légende :    VFR   VFR Marginal   IFR   IFR Intensif   IFR Très Intensif
Visi : 
Plafond : 
>= 8 km
>= 3000ft
5 à 8 km
1000 à 3000 ft
1500m à 5 km
500 à 1000 ft
800 à 1500m
200 à 500 ft
< 800m
< 200 ft
Symboles :   Orages  Brouillard  Fortes neiges  Fortes précipitations  Vent > 20 kt
SIGMETs :   Divers  Orages  Givrage  Turbulence  Onde Orograph.  Cendres Volcan.







- Altitude de l'aérodrome : 16 ft
- Code IATA : SDR


LEXJ - Santander Cantabria

DERNIER METAR :
  • 192000Z 00000KT 9999 BKN067 OVC079 16/15 Q1011

METARs EXPIRÉS :
  • 191930Z 00000KT 9999 FEW078 15/13 Q1011
  • 191900Z 00000KT 9999 FEW060 16/14 Q1010
  • 191830Z VRB01KT 9999 BKN076 17/14 Q1010
  • 191800Z VRB02KT 9999 BKN069 18/14 Q1010
  • 191730Z 11004KT 080V140 9999 SCT065 BKN080 18/14 Q1010

TAF TAF LEXJ
Valide du 19 à 15h jusqu'au 20 à 15h UTC


191400Z 1915/2015 VRB04KT 9999 FEW040 TX23/2014Z TN14/2006Z
TEMPO 1915/1918 04010KT
PROB30
TEMPO 1921/1924 28010KT RADZ
Pas de NOTAMs connus pour ce terrain.
1 SIGMET publié pour la FIR Madrid (LECM) :
 
Turbulence forte
LECM SIGMET 7 VALID 192000/192400 LEVA
LECM MADRID FIR/UIR SEV TURB FCST E OF LINE N4340 W002 - N3810 W002 FL200/340 MOV E 20KT WKN=



MET'MAP, la Météo Aéronautique d'un coup d'oeil ! - Copyright ORBIFLY Décembre 2007 - Disclaimer

ORBIFLY MET'MAP TEAM :

Programmation & Développement : Alexandra Zaïnal
Conception & Développement : Baudouin d'Aumeries
Co-Programmation & Développement : Marc-Olivier Méhu
Soutien technique & logistique : Manuel Goepfert

Contact : metmap@orbifly.com




SOURCES & CREDITS :

   NOAA